createdAt,value
2023-05-15T00:00:25.301Z,8.70
2023-05-15T00:05:27.492Z,9.90
2023-05-15T00:10:29.906Z,11.63
2023-05-15T00:15:32.386Z,10.73
2023-05-15T00:20:34.060Z,10.25
2023-05-15T00:25:35.783Z,10.40
2023-05-15T00:30:37.694Z,11.13
2023-05-15T00:35:39.529Z,10.75
2023-05-15T00:40:42.109Z,10.48
2023-05-15T00:45:44.869Z,10.48
2023-05-15T00:50:47.406Z,9.77
2023-05-15T00:55:50.683Z,10.88
2023-05-15T01:00:53.499Z,9.75
2023-05-15T01:05:56.873Z,9.77
2023-05-15T01:11:00.294Z,10.13
2023-05-15T01:16:04.160Z,10.65
2023-05-15T01:21:37.514Z,10.15
2023-05-15T01:27:07.260Z,10.10
2023-05-15T01:32:51.035Z,9.50
2023-05-15T01:38:17.832Z,8.80
2023-05-15T01:43:24.286Z,9.80
2023-05-15T01:48:28.871Z,10.10
2023-05-15T01:53:35.196Z,9.40
2023-05-15T01:58:42.114Z,10.15
2023-05-15T02:03:50.704Z,13.23
2023-05-15T02:08:54.932Z,11.52
2023-05-15T02:13:58.972Z,21.58
2023-05-15T02:19:01.010Z,29.17
2023-05-15T02:24:02.794Z,15.27
2023-05-15T02:29:27.559Z,11.05
2023-05-15T02:34:45.915Z,9.88
2023-05-15T02:39:54.312Z,11.20
2023-05-15T02:44:57.546Z,11.45
2023-05-15T02:50:02.804Z,11.85
2023-05-15T02:55:07.714Z,11.30
2023-05-15T03:00:13.602Z,11.18
2023-05-15T03:05:17.375Z,11.80
2023-05-15T03:10:24.657Z,11.60
2023-05-15T03:15:26.816Z,11.38
2023-05-15T03:20:34.071Z,11.50
2023-05-15T03:25:38.136Z,11.10
2023-05-15T03:30:39.878Z,11.77
2023-05-15T03:35:41.868Z,11.15
2023-05-15T03:40:43.588Z,11.88
2023-05-15T03:45:47.744Z,11.77
2023-05-15T03:50:50.937Z,11.80
2023-05-15T03:55:54.242Z,11.10
2023-05-15T04:00:56.318Z,11.05
2023-05-15T04:05:58.005Z,11.15
2023-05-15T04:11:00.181Z,11.63
2023-05-15T04:16:02.513Z,11.00
2023-05-15T04:21:04.239Z,11.05
2023-05-15T04:26:05.936Z,10.93
2023-05-15T04:31:10.448Z,10.85
2023-05-15T04:36:13.548Z,10.13
2023-05-15T04:41:15.481Z,10.82
2023-05-15T04:46:17.181Z,10.43
2023-05-15T04:51:18.924Z,11.27
2023-05-15T04:56:21.293Z,10.55
2023-05-15T05:01:23.427Z,10.35
2023-05-15T05:06:25.342Z,10.50
2023-05-15T05:11:27.128Z,10.52
2023-05-15T05:16:28.885Z,9.95
2023-05-15T05:21:32.592Z,10.43
2023-05-15T05:26:37.680Z,10.38
2023-05-15T05:31:39.389Z,10.48
2023-05-15T05:36:41.493Z,10.38
2023-05-15T05:41:43.914Z,10.10
2023-05-15T05:46:46.156Z,10.00
2023-05-15T05:51:52.537Z,10.43
2023-05-15T05:56:55.915Z,10.48
2023-05-15T06:01:57.836Z,10.65
2023-05-15T06:07:01.911Z,10.57
2023-05-15T06:12:08.479Z,10.32
2023-05-15T06:17:11.283Z,10.93
2023-05-15T06:22:13.059Z,11.07
2023-05-15T06:27:17.959Z,10.60
2023-05-15T06:32:22.013Z,11.07
2023-05-15T06:37:23.873Z,11.38
2023-05-15T06:42:25.788Z,11.13
2023-05-15T06:47:29.039Z,10.85
2023-05-15T06:52:32.355Z,11.27
2023-05-15T06:57:34.818Z,11.77
2023-05-15T07:02:36.749Z,11.55
2023-05-15T07:07:41.097Z,12.23
2023-05-15T07:12:43.122Z,12.10
2023-05-15T07:17:46.329Z,11.52
2023-05-15T07:22:56.286Z,11.75
2023-05-15T07:27:58.554Z,12.02
2023-05-15T07:33:00.375Z,11.63
2023-05-15T07:38:03.486Z,11.05
2023-05-15T07:43:08.321Z,10.85
2023-05-15T07:48:24.444Z,9.73
2023-05-15T07:53:26.406Z,10.60
2023-05-15T07:58:28.636Z,9.70
2023-05-15T08:03:31.658Z,10.15
2023-05-15T08:08:33.689Z,9.27
2023-05-15T08:13:35.429Z,9.80
2023-05-15T08:18:38.385Z,9.25
2023-05-15T08:23:40.093Z,8.68
2023-05-15T08:28:42.837Z,7.35
2023-05-15T08:33:44.895Z,7.03
2023-05-15T08:38:46.617Z,6.00
2023-05-15T08:43:53.684Z,5.95
2023-05-15T08:48:56.855Z,5.38
2023-05-15T08:54:00.927Z,6.65
2023-05-15T08:59:03.992Z,6.18
2023-05-15T09:04:06.767Z,6.75
2023-05-15T09:09:14.563Z,6.25
2023-05-15T09:14:18.097Z,7.30
2023-05-15T09:19:23.998Z,6.47
2023-05-15T09:24:29.216Z,6.15
2023-05-15T09:29:31.972Z,5.72
2023-05-15T09:34:35.865Z,6.43
2023-05-15T09:39:46.974Z,7.30
2023-05-15T09:44:48.872Z,5.28
2023-05-15T09:49:51.722Z,4.60
2023-05-15T09:54:55.703Z,5.72
2023-05-15T10:00:05.197Z,4.63
2023-05-15T10:05:08.090Z,5.88
2023-05-15T10:10:10.410Z,5.03
2023-05-15T10:15:15.393Z,5.00
2023-05-15T10:20:20.099Z,4.80
2023-05-15T10:25:42.868Z,4.53
2023-05-15T10:30:45.347Z,4.85
2023-05-15T10:35:49.410Z,4.53
2023-05-15T10:40:57.592Z,5.00
2023-05-15T10:46:07.942Z,4.07
2023-05-15T10:51:17.870Z,4.47
2023-05-15T10:56:23.433Z,3.88
2023-05-15T11:01:45.598Z,3.60
2023-05-15T11:06:50.999Z,4.10
2023-05-15T11:12:00.248Z,4.15
2023-05-15T11:17:07.621Z,5.00
2023-05-15T11:22:16.933Z,5.45
2023-05-15T11:27:29.871Z,5.90
2023-05-15T11:32:39.929Z,5.80
2023-05-15T11:38:04.508Z,5.65
2023-05-15T11:43:27.324Z,5.63
2023-05-15T11:48:35.220Z,5.63
2023-05-15T11:53:39.166Z,6.70
2023-05-15T11:58:43.143Z,6.68
2023-05-15T12:03:47.932Z,7.20
2023-05-15T12:08:53.624Z,6.70
2023-05-15T12:13:55.478Z,6.32
2023-05-15T12:18:58.717Z,6.40
2023-05-15T12:29:08.758Z,5.60
2023-05-15T12:34:11.423Z,5.65
2023-05-15T12:39:13.169Z,5.50
2023-05-15T12:44:18.977Z,5.40
2023-05-15T12:49:23.842Z,5.00
2023-05-15T12:54:26.493Z,4.18
2023-05-15T12:59:29.653Z,4.50
2023-05-15T13:04:33.459Z,5.35
2023-05-15T13:09:39.801Z,4.20
2023-05-15T13:14:43.020Z,4.75
2023-05-15T13:19:44.793Z,4.30
2023-05-15T13:24:50.113Z,5.35
2023-05-15T13:29:51.966Z,4.95
2023-05-15T13:34:54.992Z,5.10
2023-05-15T13:39:57.612Z,4.50
2023-05-15T13:44:59.500Z,5.93
2023-05-15T13:50:02.863Z,5.82
2023-05-15T13:55:05.641Z,5.35
2023-05-15T14:00:11.556Z,5.40
2023-05-15T14:05:19.972Z,5.18
2023-05-15T14:10:25.061Z,4.85
2023-05-15T14:15:28.053Z,3.97
2023-05-15T14:20:29.842Z,3.92
2023-05-15T14:25:42.768Z,3.97
2023-05-15T14:30:44.477Z,3.50
2023-05-15T14:35:47.650Z,3.40
2023-05-15T14:40:49.427Z,3.00
2023-05-15T14:45:52.008Z,3.55
2023-05-15T14:50:56.394Z,3.40
2023-05-15T14:55:58.610Z,3.60
2023-05-15T15:01:00.419Z,4.05
2023-05-15T15:06:02.269Z,3.58
2023-05-15T15:11:05.748Z,4.30
2023-05-15T15:16:08.219Z,4.60
2023-05-15T15:21:12.389Z,4.65
2023-05-15T15:26:14.768Z,5.40
2023-05-15T15:31:16.645Z,4.40
2023-05-15T15:36:25.538Z,4.03
2023-05-15T15:41:30.568Z,3.65
2023-05-15T15:46:33.138Z,4.28
2023-05-15T15:51:34.856Z,5.18
2023-05-15T15:56:37.673Z,4.32
2023-05-15T16:01:39.562Z,4.63
2023-05-15T16:06:41.501Z,3.85
2023-05-15T16:11:43.331Z,4.60
2023-05-15T16:16:46.624Z,5.47
2023-05-15T16:21:50.748Z,4.13
2023-05-15T16:26:53.786Z,4.22
2023-05-15T16:31:56.953Z,4.00
2023-05-15T16:37:00.171Z,3.40
2023-05-15T16:42:07.881Z,3.70
2023-05-15T16:47:12.180Z,3.80
2023-05-15T16:52:13.968Z,3.63
2023-05-15T16:57:16.325Z,3.75
2023-05-15T17:02:18.161Z,4.10
2023-05-15T17:07:21.552Z,5.97
2023-05-15T17:12:23.491Z,4.20
2023-05-15T17:17:28.089Z,4.20
2023-05-15T17:22:33.084Z,4.07
2023-05-15T17:27:39.742Z,3.88
2023-05-15T17:32:41.787Z,4.43
2023-05-15T17:37:45.115Z,4.55
2023-05-15T17:42:49.144Z,4.50
2023-05-15T17:47:51.119Z,4.55
2023-05-15T17:52:56.100Z,4.30
2023-05-15T17:57:58.480Z,4.50
2023-05-15T18:03:01.185Z,4.20
2023-05-15T18:08:03.722Z,4.38
2023-05-15T18:13:07.336Z,4.40
2023-05-15T18:18:09.017Z,4.50
2023-05-15T18:23:10.704Z,4.50
2023-05-15T18:28:13.408Z,4.70
2023-05-15T18:33:17.303Z,4.30
2023-05-15T18:38:19.190Z,4.90
2023-05-15T18:43:22.082Z,5.47
2023-05-15T18:48:23.854Z,5.25
2023-05-15T18:53:25.640Z,5.47
2023-05-15T18:58:27.371Z,5.07
2023-05-15T19:03:29.339Z,5.05
2023-05-15T19:08:31.180Z,5.85
2023-05-15T19:13:33.166Z,6.32
2023-05-15T19:18:34.969Z,6.05
2023-05-15T19:23:36.750Z,5.95
2023-05-15T19:28:38.548Z,6.10
2023-05-15T19:33:40.655Z,5.88
2023-05-15T19:38:44.542Z,5.80
2023-05-15T19:43:47.020Z,5.68
2023-05-15T19:48:48.932Z,5.75
2023-05-15T19:53:51.976Z,6.22
2023-05-15T19:58:54.369Z,5.72
2023-05-15T20:03:56.427Z,6.00
2023-05-15T20:08:58.243Z,6.10
2023-05-15T20:14:00.175Z,5.70
2023-05-15T20:19:02.055Z,7.00
2023-05-15T20:24:04.205Z,6.47
2023-05-15T20:29:05.967Z,7.05
2023-05-15T20:34:10.637Z,7.28
2023-05-15T20:39:14.368Z,6.75
2023-05-15T20:44:16.634Z,7.30
2023-05-15T20:49:18.619Z,7.75
2023-05-15T20:54:20.550Z,7.93
2023-05-15T20:59:22.404Z,7.25
2023-05-15T21:04:24.232Z,6.93
2023-05-15T21:09:27.113Z,7.70
2023-05-15T21:14:29.454Z,7.95
2023-05-15T21:19:31.310Z,8.10
2023-05-15T21:24:33.122Z,7.90
2023-05-15T21:29:35.040Z,8.30
2023-05-15T21:34:37.829Z,7.78
2023-05-15T21:39:39.634Z,8.73
2023-05-15T21:44:41.760Z,8.48
2023-05-15T21:49:43.770Z,8.90
2023-05-15T21:54:47.168Z,8.98
2023-05-15T21:59:49.021Z,9.38
2023-05-15T22:04:50.986Z,8.70
2023-05-15T22:09:54.100Z,9.57
2023-05-15T22:14:58.737Z,9.05
2023-05-15T22:20:02.648Z,8.60
2023-05-15T22:25:05.579Z,9.23
2023-05-15T22:30:08.557Z,8.88
2023-05-15T22:35:11.277Z,9.73
2023-05-15T22:40:13.291Z,9.40
2023-05-15T22:45:16.515Z,8.52
2023-05-15T22:50:19.044Z,9.55
2023-05-15T22:55:20.765Z,9.07
2023-05-15T23:00:22.465Z,8.30
2023-05-15T23:05:24.894Z,9.27
2023-05-15T23:10:26.815Z,9.38
2023-05-15T23:15:28.741Z,8.85
2023-05-15T23:20:30.675Z,9.18
2023-05-15T23:25:32.486Z,8.73
2023-05-15T23:30:34.211Z,9.43
2023-05-15T23:35:35.912Z,9.20
2023-05-15T23:40:37.694Z,9.10
2023-05-15T23:45:39.356Z,9.38
2023-05-15T23:50:41.023Z,9.35
2023-05-15T23:55:42.740Z,9.48
